Time;durP1;ratioP1;P1;durP2;ratioP2;P2;SDS_P1;SDS_P2;PMS_P1;PMS_P2;Temp;Humidity;BMP_temperature;BMP_pressure;BME280_temperature;BME280_humidity;BME280_pressure;Samples;Min_cycle;Max_cycle;Signal;HPM_P1;HPM_P2
2024/02/09 00:00:52;;;;;;;3.50;3.30;;;;;;;;;;5117448;28;20188;-63
2024/02/09 00:03:19;;;;;;;3.50;3.20;;;;;;;;;;5117380;28;20543;-63
2024/02/09 00:05:49;;;;;;;2.85;2.65;;;;;;;;;;5117505;28;20188;-63
2024/02/09 00:08:17;;;;;;;4.18;3.40;;;;;;;;;;5117444;28;20196;-64
2024/02/09 00:10:47;;;;;;;3.75;3.42;;;;;;;;;;5116993;28;20274;-63
2024/02/09 00:13:14;;;;;;;2.88;2.67;;;;;;;;;;5117167;28;20602;-64
2024/02/09 00:15:42;;;;;;;3.40;3.10;;;;;;;;;;5117018;28;20660;-63
2024/02/09 00:18:10;;;;;;;3.10;2.90;;;;;;;;;;5117037;28;20253;-63
2024/02/09 00:20:37;;;;;;;3.10;2.90;;;;;;;;;;5116893;28;20192;-63
2024/02/09 00:23:04;;;;;;;4.25;3.90;;;;;;;;;;5116743;28;20276;-63
2024/02/09 00:25:32;;;;;;;3.50;3.20;;;;;;;;;;5116981;28;20196;-64
2024/02/09 00:28:00;;;;;;;3.30;3.10;;;;;;;;;;5116851;28;20294;-63
2024/02/09 00:30:27;;;;;;;3.03;2.83;;;;;;;;;;5116841;28;20200;-63
2024/02/09 00:32:54;;;;;;;3.35;2.70;;;;;;;;;;5116479;28;20288;-63
2024/02/09 00:35:23;;;;;;;3.17;2.88;;;;;;;;;;5116503;28;20347;-64
2024/02/09 00:37:55;;;;;;;3.50;3.30;;;;;;;;;;5116782;28;20219;-63
2024/02/09 00:40:22;;;;;;;4.35;3.10;;;;;;;;;;5116726;28;20188;-64
2024/02/09 00:42:51;;;;;;;4.20;3.80;;;;;;;;;;5116631;28;20188;-63
2024/02/09 00:45:18;;;;;;;2.90;2.70;;;;;;;;;;5116624;28;20202;-63
2024/02/09 00:47:47;;;;;;;3.30;3.10;;;;;;;;;;5116338;28;20202;-64
2024/02/09 00:50:16;;;;;;;3.88;2.95;;;;;;;;;;5116244;28;20610;-63
2024/02/09 00:52:44;;;;;;;3.60;3.30;;;;;;;;;;5116424;28;20193;-63
2024/02/09 00:55:12;;;;;;;2.35;2.22;;;;;;;;;;5116354;28;20207;-63
2024/02/09 00:57:40;;;;;;;3.22;2.80;;;;;;;;;;5116119;28;20184;-63
2024/02/09 01:00:10;;;;;;;3.75;3.00;;;;;;;;;;5116174;28;20615;-63
2024/02/09 01:02:37;;;;;;;2.92;2.72;;;;;;;;;;5116488;28;20184;-63
2024/02/09 01:05:04;;;;;;;3.42;3.13;;;;;;;;;;5115857;28;20278;-64
2024/02/09 01:07:31;;;;;;;2.88;2.67;;;;;;;;;;5116184;28;20548;-63
2024/02/09 01:09:58;;;;;;;2.95;2.65;;;;;;;;;;5116226;28;20188;-63
2024/02/09 02:45:48;;;;;;;3.30;3.00;;;;;;;;;;5114288;28;20184;-64
2024/02/09 03:04:44;;;;;;;3.95;3.10;;;;;;;;;;5113818;28;20190;-63
2024/02/09 03:07:11;;;;;;;3.03;2.83;;;;;;;;;;5113809;28;20283;-63
2024/02/09 03:09:39;;;;;;;3.90;3.60;;;;;;;;;;5113618;28;20199;-63
2024/02/09 03:12:06;;;;;;;2.95;2.70;;;;;;;;;;5113933;28;20611;-63
2024/02/09 03:14:33;;;;;;;5.75;3.60;;;;;;;;;;5113641;28;20651;-64
2024/02/09 03:17:00;;;;;;;3.83;3.53;;;;;;;;;;5113634;28;20251;-64
2024/02/09 03:19:27;;;;;;;3.17;2.88;;;;;;;;;;5113665;28;20298;-63
2024/02/09 03:21:56;;;;;;;3.35;3.13;;;;;;;;;;5113560;28;20274;-63
2024/02/09 03:24:23;;;;;;;3.22;2.92;;;;;;;;;;5113488;28;20194;-64
2024/02/09 03:26:51;;;;;;;3.33;3.03;;;;;;;;;;5113701;28;20226;-64
2024/02/09 03:29:18;;;;;;;2.83;2.60;;;;;;;;;;5113460;28;20279;-63
2024/02/09 03:31:45;;;;;;;3.90;3.50;;;;;;;;;;5113478;28;20196;-63
2024/02/09 03:34:12;;;;;;;3.33;2.83;;;;;;;;;;5113265;28;20302;-63
2024/02/09 03:36:39;;;;;;;3.38;3.08;;;;;;;;;;5113323;28;20311;-63
2024/02/09 03:39:08;;;;;;;2.90;2.60;;;;;;;;;;5113520;28;20190;-63
2024/02/09 03:41:36;;;;;;;4.00;3.45;;;;;;;;;;5113294;28;20713;-61
2024/02/09 03:44:04;;;;;;;2.85;2.65;;;;;;;;;;5113403;28;20547;-62
2024/02/09 03:46:32;;;;;;;3.95;3.55;;;;;;;;;;5113367;28;20199;-62
2024/02/09 03:48:59;;;;;;;4.85;3.45;;;;;;;;;;5113263;28;20184;-62
2024/02/09 03:51:26;;;;;;;3.45;3.20;;;;;;;;;;5113174;28;20550;-62
2024/02/09 03:53:53;;;;;;;2.83;2.65;;;;;;;;;;5113359;28;20278;-62
2024/02/09 03:56:20;;;;;;;3.45;3.15;;;;;;;;;;5113230;28;20218;-62
2024/02/09 03:58:47;;;;;;;3.08;2.83;;;;;;;;;;5113250;28;20221;-62
2024/02/09 04:01:16;;;;;;;3.63;3.33;;;;;;;;;;5113103;28;20274;-62
2024/02/09 04:03:43;;;;;;;2.78;2.58;;;;;;;;;;5113050;28;20275;-62
2024/02/09 04:06:09;;;;;;;3.70;3.08;;;;;;;;;;5113020;28;20283;-62
2024/02/09 04:08:36;;;;;;;4.30;3.30;;;;;;;;;;5113129;28;20543;-62
2024/02/09 04:11:03;;;;;;;2.85;2.65;;;;;;;;;;5113137;28;20274;-62
2024/02/09 04:13:30;;;;;;;3.63;3.35;;;;;;;;;;5113116;28;20233;-62
2024/02/09 04:16:00;;;;;;;3.90;3.60;;;;;;;;;;5112943;28;20216;-62
2024/02/09 04:18:28;;;;;;;5.13;3.28;;;;;;;;;;5112861;28;20184;-62
2024/02/09 04:20:55;;;;;;;3.45;2.80;;;;;;;;;;5113124;28;20279;-62
2024/02/09 04:23:23;;;;;;;3.92;3.63;;;;;;;;;;5113173;28;20188;-62
2024/02/09 04:25:50;;;;;;;4.85;3.55;;;;;;;;;;5113032;28;20196;-62
2024/02/09 04:28:17;;;;;;;3.80;3.50;;;;;;;;;;5113000;28;20192;-62
2024/02/09 04:30:46;;;;;;;4.05;3.65;;;;;;;;;;5112799;28;20188;-62
2024/02/09 04:33:15;;;;;;;3.67;3.35;;;;;;;;;;5112778;28;20307;-62
2024/02/09 04:35:43;;;;;;;3.85;3.55;;;;;;;;;;5112838;28;20188;-62
2024/02/09 04:38:10;;;;;;;3.75;3.45;;;;;;;;;;5112741;28;20710;-62
2024/02/09 04:40:39;;;;;;;4.70;3.47;;;;;;;;;;5114143;28;20210;-62
2024/02/09 04:43:06;;;;;;;4.00;3.70;;;;;;;;;;5116491;28;20192;-62
2024/02/09 04:45:33;;;;;;;4.88;3.97;;;;;;;;;;5116397;28;20251;-62
2024/02/09 04:48:00;;;;;;;3.60;3.38;;;;;;;;;;5116489;28;20274;-62
2024/02/09 04:50:27;;;;;;;4.15;3.75;;;;;;;;;;5116423;28;20559;-62
2024/02/09 04:52:55;;;;;;;5.15;3.67;;;;;;;;;;5116361;28;20188;-62
2024/02/09 04:55:22;;;;;;;4.15;3.75;;;;;;;;;;5116285;28;20222;-62
2024/02/09 04:57:49;;;;;;;4.18;3.35;;;;;;;;;;5116152;28;20215;-62
2024/02/09 05:00:16;;;;;;;3.90;3.60;;;;;;;;;;5116300;28;20274;-62
2024/02/09 05:02:45;;;;;;;3.60;3.30;;;;;;;;;;5116060;28;20271;-62
2024/02/09 05:05:12;;;;;;;3.90;3.38;;;;;;;;;;5116225;28;20188;-62
2024/02/09 05:07:39;;;;;;;4.00;3.60;;;;;;;;;;5116086;28;20602;-62
2024/02/09 05:10:07;;;;;;;3.42;3.13;;;;;;;;;;5115947;28;20188;-62
2024/02/09 05:12:35;;;;;;;3.42;3.00;;;;;;;;;;5116360;28;20324;-62
2024/02/09 05:15:02;;;;;;;4.03;3.72;;;;;;;;;;5116091;28;20199;-62
2024/02/09 05:17:29;;;;;;;3.53;3.22;;;;;;;;;;5115483;28;20215;-62
2024/02/09 05:19:59;;;;;;;3.80;3.50;;;;;;;;;;5115840;28;20278;-62
2024/02/09 05:22:27;;;;;;;3.13;2.92;;;;;;;;;;5115806;28;20220;-62
2024/02/09 05:24:54;;;;;;;5.55;3.35;;;;;;;;;;5115657;28;20392;-62
2024/02/09 05:27:23;;;;;;;2.88;2.67;;;;;;;;;;5115650;28;20625;-62
2024/02/09 05:29:50;;;;;;;3.30;3.00;;;;;;;;;;5115701;28;20532;-62
2024/02/09 05:32:16;;;;;;;2.95;2.75;;;;;;;;;;5115455;28;20810;-62
2024/02/09 05:34:45;;;;;;;3.67;3.20;;;;;;;;;;5115601;28;20274;-62
2024/02/09 05:37:15;;;;;;;4.00;3.60;;;;;;;;;;5115437;28;20212;-62
2024/02/09 05:39:43;;;;;;;3.55;3.25;;;;;;;;;;5115363;28;20233;-62
2024/02/09 05:42:10;;;;;;;3.65;3.35;;;;;;;;;;5115525;28;20192;-62
2024/02/09 05:44:38;;;;;;;4.88;3.60;;;;;;;;;;5115378;28;20283;-62
2024/02/09 05:47:05;;;;;;;3.45;3.15;;;;;;;;;;5115155;28;20731;-62
2024/02/09 05:49:32;;;;;;;3.90;3.60;;;;;;;;;;5115315;28;20190;-62
2024/02/09 05:51:59;;;;;;;3.67;3.35;;;;;;;;;;5115073;28;20274;-62
2024/02/09 05:54:26;;;;;;;3.35;3.05;;;;;;;;;;5115322;28;20188;-62
2024/02/09 05:56:53;;;;;;;3.15;2.95;;;;;;;;;;5115125;28;20212;-62
2024/02/09 05:59:21;;;;;;;3.75;3.45;;;;;;;;;;5115153;28;20264;-62
2024/02/09 06:01:50;;;;;;;3.03;2.83;;;;;;;;;;5114932;28;20195;-62
2024/02/09 06:04:17;;;;;;;4.60;4.20;;;;;;;;;;5114863;28;20278;-62
2024/02/09 06:06:44;;;;;;;3.10;2.90;;;;;;;;;;5114728;28;20188;-62
2024/02/09 06:09:11;;;;;;;2.90;2.67;;;;;;;;;;5114962;28;20241;-62
2024/02/09 06:11:38;;;;;;;3.72;3.42;;;;;;;;;;5114833;28;20190;-62
2024/02/09 06:14:05;;;;;;;4.10;3.28;;;;;;;;;;5114818;28;20303;-62
2024/02/09 06:16:32;;;;;;;3.40;3.10;;;;;;;;;;5114508;28;20743;-62
2024/02/09 06:19:00;;;;;;;3.92;3.53;;;;;;;;;;5114622;28;20279;-62
2024/02/09 06:21:27;;;;;;;3.05;2.85;;;;;;;;;;5114433;28;20734;-62
2024/02/09 06:23:56;;;;;;;3.17;2.97;;;;;;;;;;5114725;28;20624;-62
2024/02/09 06:26:23;;;;;;;4.45;4.05;;;;;;;;;;5114534;28;20195;-62
2024/02/09 06:28:50;;;;;;;3.00;2.78;;;;;;;;;;5114471;28;20312;-62
2024/02/09 06:31:17;;;;;;;3.65;3.35;;;;;;;;;;5114391;28;20547;-62
2024/02/09 06:33:46;;;;;;;2.78;2.58;;;;;;;;;;5114130;28;20230;-62
2024/02/09 06:36:15;;;;;;;2.90;2.65;;;;;;;;;;5114104;28;20643;-62
2024/02/09 06:38:42;;;;;;;3.08;2.78;;;;;;;;;;5114353;28;20278;-62
2024/02/09 06:41:10;;;;;;;3.15;2.90;;;;;;;;;;5114286;28;20184;-62
2024/02/09 06:43:36;;;;;;;2.60;2.45;;;;;;;;;;5114160;28;20196;-62
2024/02/09 06:46:03;;;;;;;3.00;2.80;;;;;;;;;;5114081;28;20184;-62
2024/02/09 06:48:31;;;;;;;3.03;2.75;;;;;;;;;;5114005;28;20203;-62
2024/02/09 06:50:58;;;;;;;2.78;2.58;;;;;;;;;;5114024;28;20191;-62
2024/02/09 06:53:27;;;;;;;2.90;2.70;;;;;;;;;;5113970;28;20188;-62
2024/02/09 06:55:54;;;;;;;2.75;2.55;;;;;;;;;;5113919;28;20192;-62
2024/02/09 06:58:23;;;;;;;3.00;2.70;;;;;;;;;;5113810;28;20219;-62
2024/02/09 07:00:52;;;;;;;4.22;3.60;;;;;;;;;;5113690;28;20192;-62
2024/02/09 07:03:19;;;;;;;2.55;2.35;;;;;;;;;;5113697;28;20180;-62
2024/02/09 07:05:49;;;;;;;2.30;2.20;;;;;;;;;;5113775;28;20192;-62
2024/02/09 07:08:26;;;;;;;3.00;2.72;;;;;;;;;;5113790;28;20288;-62
2024/02/09 07:10:54;;;;;;;3.20;2.90;;;;;;;;;;5113657;28;20196;-62
2024/02/09 07:13:21;;;;;;;3.00;2.80;;;;;;;;;;5114042;28;20616;-62
2024/02/09 07:15:48;;;;;;;2.97;2.78;;;;;;;;;;5113722;28;20520;-62
2024/02/09 07:18:15;;;;;;;2.75;2.55;;;;;;;;;;5113595;28;20262;-62
2024/02/09 07:20:42;;;;;;;2.60;2.40;;;;;;;;;;5113582;28;20183;-62
2024/02/09 07:23:09;;;;;;;3.17;2.97;;;;;;;;;;5113416;28;20230;-62
2024/02/09 07:25:36;;;;;;;3.15;2.95;;;;;;;;;;5113417;28;20282;-62
2024/02/09 07:28:04;;;;;;;3.17;2.97;;;;;;;;;;5113216;28;20635;-62
2024/02/09 07:30:31;;;;;;;2.75;2.55;;;;;;;;;;5113482;28;20279;-62
2024/02/09 07:32:58;;;;;;;3.13;2.67;;;;;;;;;;5113223;28;20222;-62
2024/02/09 07:35:25;;;;;;;3.55;2.17;;;;;;;;;;5113396;28;20188;-62
2024/02/09 07:37:52;;;;;;;3.17;2.35;;;;;;;;;;5113291;28;20594;-62
2024/02/09 07:40:20;;;;;;;2.70;2.50;;;;;;;;;;5113231;28;20198;-62
2024/02/09 07:42:47;;;;;;;2.60;2.40;;;;;;;;;;5113313;28;20207;-62
2024/02/09 07:45:16;;;;;;;2.75;2.55;;;;;;;;;;5113300;28;20188;-62
2024/02/09 07:47:44;;;;;;;2.78;2.58;;;;;;;;;;5113360;28;20195;-62
2024/02/09 07:50:11;;;;;;;2.95;2.75;;;;;;;;;;5113335;28;20191;-62
2024/02/09 07:52:39;;;;;;;2.53;2.42;;;;;;;;;;5113214;28;20188;-62
2024/02/09 07:55:07;;;;;;;2.35;2.15;;;;;;;;;;5113018;28;20223;-62
2024/02/09 07:57:34;;;;;;;2.90;2.70;;;;;;;;;;5113023;28;20215;-62
2024/02/09 08:00:01;;;;;;;2.63;2.42;;;;;;;;;;5113160;28;20274;-65
2024/02/09 08:02:31;;;;;;;3.00;2.70;;;;;;;;;;5112544;28;20233;-67
2024/02/09 08:04:58;;;;;;;2.60;2.40;;;;;;;;;;5092566;28;20196;-71
2024/02/09 08:07:25;;;;;;;2.50;2.30;;;;;;;;;;5092534;28;20218;-66
2024/02/09 08:09:52;;;;;;;2.50;2.30;;;;;;;;;;5092831;28;20290;-63
2024/02/09 08:12:19;;;;;;;2.70;2.50;;;;;;;;;;5092687;28;20184;-62
2024/02/09 08:14:48;;;;;;;2.58;2.35;;;;;;;;;;5092652;28;20283;-65
2024/02/09 08:17:18;;;;;;;2.65;2.53;;;;;;;;;;5096428;28;20208;-64
2024/02/09 08:19:46;;;;;;;2.50;2.30;;;;;;;;;;5096366;28;20214;-66
2024/02/09 08:22:19;;;;;;;2.75;2.55;;;;;;;;;;5096359;28;20555;-63
2024/02/09 08:24:46;;;;;;;2.50;2.30;;;;;;;;;;5096512;28;20192;-66
2024/02/09 08:27:13;;;;;;;2.58;2.47;;;;;;;;;;5096283;28;20727;-65
2024/02/09 08:29:40;;;;;;;3.22;2.97;;;;;;;;;;5096277;28;20184;-66
2024/02/09 08:32:07;;;;;;;2.72;2.58;;;;;;;;;;5095737;28;20234;-65
2024/02/09 08:34:34;;;;;;;2.70;2.50;;;;;;;;;;5096141;28;20189;-64
2024/02/09 08:37:03;;;;;;;4.38;3.97;;;;;;;;;;5096201;28;20222;-61
2024/02/09 08:39:30;;;;;;;4.70;4.25;;;;;;;;;;5096102;28;20195;-63
2024/02/09 08:41:57;;;;;;;3.17;2.97;;;;;;;;;;5096147;28;20288;-62
2024/02/09 08:44:24;;;;;;;3.25;2.95;;;;;;;;;;5095998;28;20192;-65
2024/02/09 08:46:51;;;;;;;2.83;2.65;;;;;;;;;;5095975;28;20279;-67
2024/02/09 08:49:18;;;;;;;3.03;2.83;;;;;;;;;;5095795;28;20188;-64
2024/02/09 08:51:45;;;;;;;2.70;2.50;;;;;;;;;;5095978;28;20283;-65
2024/02/09 08:54:14;;;;;;;2.45;2.25;;;;;;;;;;5095942;28;20275;-65
2024/02/09 08:56:41;;;;;;;2.80;2.60;;;;;;;;;;5095827;28;20224;-66
2024/02/09 08:59:08;;;;;;;5.18;2.42;;;;;;;;;;5095518;28;20223;-65
2024/02/09 09:01:36;;;;;;;2.92;2.08;;;;;;;;;;5095581;28;20191;-65
2024/02/09 09:04:03;;;;;;;2.47;2.28;;;;;;;;;;5095596;28;20193;-64
2024/02/09 09:06:30;;;;;;;2.60;2.40;;;;;;;;;;5095594;28;20203;-64
2024/02/09 09:08:57;;;;;;;2.50;2.30;;;;;;;;;;5095509;28;20197;-62
2024/02/09 09:11:25;;;;;;;3.85;2.90;;;;;;;;;;5109141;28;20274;-67
2024/02/09 09:13:52;;;;;;;2.50;2.30;;;;;;;;;;5115254;28;20704;-64
2024/02/09 09:16:19;;;;;;;2.90;2.22;;;;;;;;;;5115703;28;20283;-65
2024/02/09 09:18:46;;;;;;;2.83;2.63;;;;;;;;;;5115898;28;20219;-63
2024/02/09 09:21:13;;;;;;;2.28;2.17;;;;;;;;;;5115708;28;20571;-63
2024/02/09 09:23:41;;;;;;;3.28;2.95;;;;;;;;;;5115993;28;20192;-67
2024/02/09 09:26:08;;;;;;;2.65;2.45;;;;;;;;;;5115214;28;20279;-69
2024/02/09 09:28:36;;;;;;;2.65;2.45;;;;;;;;;;5115569;28;20192;-64
2024/02/09 09:31:04;;;;;;;3.35;3.15;;;;;;;;;;5115469;28;20188;-64
2024/02/09 09:33:32;;;;;;;2.65;2.45;;;;;;;;;;5115078;28;20699;-64
2024/02/09 09:35:59;;;;;;;3.15;2.85;;;;;;;;;;5115365;28;20192;-64
2024/02/09 09:38:27;;;;;;;4.28;3.72;;;;;;;;;;5115252;28;20216;-65
2024/02/09 09:40:55;;;;;;;4.88;2.92;;;;;;;;;;5115344;28;20192;-64
2024/02/09 09:43:22;;;;;;;2.50;2.38;;;;;;;;;;5115049;28;20556;-64
2024/02/09 09:45:56;;;;;;;2.63;2.42;;;;;;;;;;5115436;28;20594;-65
2024/02/09 09:48:24;;;;;;;3.75;3.25;;;;;;;;;;5115275;28;20211;-64
2024/02/09 09:50:52;;;;;;;4.88;4.47;;;;;;;;;;5115257;28;20187;-64
2024/02/09 09:53:22;;;;;;;7.00;4.28;;;;;;;;;;5115065;28;20555;-64
2024/02/09 09:55:49;;;;;;;4.32;3.92;;;;;;;;;;5114960;28;20291;-65
2024/02/09 09:58:16;;;;;;;8.75;6.35;;;;;;;;;;5115136;28;20212;-64
2024/02/09 10:00:44;;;;;;;4.43;3.30;;;;;;;;;;5115060;28;20238;-65
2024/02/09 10:03:13;;;;;;;4.20;3.90;;;;;;;;;;5114994;28;20188;-64
2024/02/09 10:05:40;;;;;;;6.60;5.78;;;;;;;;;;5114809;28;20198;-64
2024/02/09 10:08:07;;;;;;;4.40;4.00;;;;;;;;;;5114788;28;20234;-62
2024/02/09 10:10:36;;;;;;;2.75;2.55;;;;;;;;;;5114677;28;20275;-64
2024/02/09 10:13:08;;;;;;;11.20;7.20;;;;;;;;;;5114736;28;20234;-65
2024/02/09 10:15:35;;;;;;;5.32;4.50;;;;;;;;;;5114298;28;20655;-67
2024/02/09 10:18:02;;;;;;;4.88;4.38;;;;;;;;;;5114478;28;20210;-68
2024/02/09 10:20:30;;;;;;;9.63;5.57;;;;;;;;;;5114573;28;20295;-65
2024/02/09 10:22:58;;;;;;;5.65;4.00;;;;;;;;;;5114353;28;20755;-65
2024/02/09 10:25:25;;;;;;;3.75;3.40;;;;;;;;;;5114285;28;20184;-65
2024/02/09 10:27:52;;;;;;;9.07;7.10;;;;;;;;;;5114527;28;20282;-65
2024/02/09 10:30:19;;;;;;;16.55;7.45;;;;;;;;;;5114426;28;20275;-71
2024/02/09 10:32:46;;;;;;;4.35;3.95;;;;;;;;;;5114116;28;20323;-64
2024/02/09 10:35:13;;;;;;;4.70;3.90;;;;;;;;;;5114233;28;20190;-65
2024/02/09 10:37:42;;;;;;;3.97;3.65;;;;;;;;;;5113675;28;20302;-62
2024/02/09 10:40:10;;;;;;;10.63;7.32;;;;;;;;;;5114228;28;20558;-62
2024/02/09 10:42:39;;;;;;;5.93;5.03;;;;;;;;;;5114213;28;20559;-66
2024/02/09 10:45:08;;;;;;;7.32;6.07;;;;;;;;;;5114060;28;20184;-62
2024/02/09 10:47:37;;;;;;;7.82;7.00;;;;;;;;;;5114004;28;20601;-61
2024/02/09 10:50:05;;;;;;;4.70;4.18;;;;;;;;;;5113842;28;20198;-64
2024/02/09 10:52:37;;;;;;;9.38;7.28;;;;;;;;;;5114092;28;20227;-65
2024/02/09 10:55:06;;;;;;;20.35;15.50;;;;;;;;;;5114031;28;20230;-68
2024/02/09 10:57:34;;;;;;;4.97;4.57;;;;;;;;;;5113803;28;20271;-61
2024/02/09 11:00:02;;;;;;;4.50;4.20;;;;;;;;;;5113762;28;20188;-65
2024/02/09 11:02:30;;;;;;;6.18;5.43;;;;;;;;;;5113558;28;20188;-64
2024/02/09 11:04:58;;;;;;;5.75;5.28;;;;;;;;;;5113847;28;20278;-61
2024/02/09 11:07:26;;;;;;;4.90;4.45;;;;;;;;;;5113855;28;20192;-61
2024/02/09 11:09:53;;;;;;;7.35;6.55;;;;;;;;;;5113893;28;20534;-63
2024/02/09 11:12:21;;;;;;;6.50;5.90;;;;;;;;;;5113666;28;20302;-64
2024/02/09 11:14:48;;;;;;;5.32;4.88;;;;;;;;;;5113417;28;20610;-63
2024/02/09 11:17:18;;;;;;;7.32;6.65;;;;;;;;;;5113412;28;20605;-64
2024/02/09 11:19:45;;;;;;;5.05;4.65;;;;;;;;;;5113411;28;20211;-63
2024/02/09 11:22:13;;;;;;;5.95;5.45;;;;;;;;;;5112548;28;20503;-63
2024/02/09 11:24:46;;;;;;;4.72;4.32;;;;;;;;;;5113194;28;20664;-71
2024/02/09 11:27:13;;;;;;;5.60;5.20;;;;;;;;;;5113446;28;20192;-63
2024/02/09 11:29:42;;;;;;;9.82;8.95;;;;;;;;;;5113148;28;20549;-63
2024/02/09 11:32:09;;;;;;;5.80;5.28;;;;;;;;;;5112985;28;20290;-66
2024/02/09 11:34:36;;;;;;;8.25;4.32;;;;;;;;;;5113289;28;20287;-65
2024/02/09 11:37:03;;;;;;;6.72;5.22;;;;;;;;;;5113161;28;20222;-65
2024/02/09 11:39:31;;;;;;;4.95;4.55;;;;;;;;;;5113097;28;20258;-65
2024/02/09 11:41:59;;;;;;;5.72;5.28;;;;;;;;;;5112964;28;20217;-65
2024/02/09 11:44:26;;;;;;;6.72;6.13;;;;;;;;;;5113206;28;20191;-66
2024/02/09 11:46:55;;;;;;;4.80;4.40;;;;;;;;;;5113400;28;20270;-65
2024/02/09 11:49:23;;;;;;;5.45;4.95;;;;;;;;;;5114390;28;20187;-65
2024/02/09 11:51:50;;;;;;;5.95;5.35;;;;;;;;;;5117474;28;20227;-66
2024/02/09 11:54:17;;;;;;;5.63;5.20;;;;;;;;;;5117334;28;20219;-66
2024/02/09 11:56:45;;;;;;;6.82;6.32;;;;;;;;;;5117312;28;20621;-65
2024/02/09 11:59:12;;;;;;;8.05;4.60;;;;;;;;;;5117347;28;20215;-66
2024/02/09 12:01:42;;;;;;;5.40;4.85;;;;;;;;;;5117376;28;20291;-66
2024/02/09 12:04:10;;;;;;;4.40;4.10;;;;;;;;;;5117337;28;20766;-65
2024/02/09 12:06:38;;;;;;;5.15;4.75;;;;;;;;;;5117250;28;20187;-66
2024/02/09 12:09:06;;;;;;;6.13;5.63;;;;;;;;;;5117087;28;20219;-66
2024/02/09 12:11:33;;;;;;;6.25;5.65;;;;;;;;;;5116985;28;20191;-66
2024/02/09 12:14:00;;;;;;;5.38;4.88;;;;;;;;;;5117114;28;20267;-66
2024/02/09 12:16:27;;;;;;;5.00;4.57;;;;;;;;;;5117125;28;20188;-66
2024/02/09 12:18:55;;;;;;;5.45;4.55;;;;;;;;;;5116895;28;20290;-65
2024/02/09 12:21:23;;;;;;;7.90;6.05;;;;;;;;;;5116945;28;20192;-65
2024/02/09 12:23:51;;;;;;;5.50;4.95;;;;;;;;;;5116682;28;20232;-66
2024/02/09 12:26:18;;;;;;;5.47;5.05;;;;;;;;;;5116969;28;20227;-66
2024/02/09 12:28:45;;;;;;;5.50;5.10;;;;;;;;;;5116829;28;20278;-66
2024/02/09 12:31:16;;;;;;;10.30;9.30;;;;;;;;;;5116736;28;20452;-66
2024/02/09 12:33:43;;;;;;;6.78;6.18;;;;;;;;;;5116558;28;20469;-66
2024/02/09 12:36:11;;;;;;;11.18;7.43;;;;;;;;;;5116524;28;20252;-66
2024/02/09 12:38:41;;;;;;;7.30;6.60;;;;;;;;;;5116649;28;20307;-65
2024/02/09 12:41:08;;;;;;;8.43;7.57;;;;;;;;;;5116710;28;20283;-66
2024/02/09 12:43:35;;;;;;;7.35;5.97;;;;;;;;;;5116578;28;20194;-66
2024/02/09 12:46:04;;;;;;;7.80;7.00;;;;;;;;;;5116506;28;20731;-66
2024/02/09 12:48:32;;;;;;;6.68;6.07;;;;;;;;;;5116384;28;20559;-66
2024/02/09 12:50:59;;;;;;;7.22;6.63;;;;;;;;;;5116283;28;20215;-66
2024/02/09 12:53:26;;;;;;;10.50;8.05;;;;;;;;;;5116561;28;20618;-66
2024/02/09 12:55:57;;;;;;;10.40;8.00;;;;;;;;;;5116323;28;20245;-66
2024/02/09 12:58:24;;;;;;;8.25;7.25;;;;;;;;;;5116036;28;20217;-66
2024/02/09 13:00:52;;;;;;;10.25;9.25;;;;;;;;;;5115465;28;20194;-66
2024/02/09 13:03:21;;;;;;;7.63;6.90;;;;;;;;;;5116043;28;20246;-66
2024/02/09 13:05:48;;;;;;;7.05;6.30;;;;;;;;;;5116207;28;20219;-66
2024/02/09 13:08:14;;;;;;;9.55;7.95;;;;;;;;;;5116261;28;20215;-66
2024/02/09 13:10:41;;;;;;;10.57;7.30;;;;;;;;;;5116091;28;20298;-66
2024/02/09 13:13:11;;;;;;;8.50;7.65;;;;;;;;;;5116034;28;20192;-66
2024/02/09 13:15:38;;;;;;;7.90;7.10;;;;;;;;;;5115796;28;20211;-66
2024/02/09 13:18:08;;;;;;;11.20;10.07;;;;;;;;;;5115658;28;20196;-66
2024/02/09 13:20:35;;;;;;;10.77;9.75;;;;;;;;;;5115896;28;20548;-66
2024/02/09 13:23:02;;;;;;;9.57;8.68;;;;;;;;;;5115745;28;20192;-66
2024/02/09 13:25:32;;;;;;;12.45;10.63;;;;;;;;;;5115783;28;20274;-66
2024/02/09 13:28:00;;;;;;;9.85;8.90;;;;;;;;;;5115433;28;20213;-66
2024/02/09 13:30:28;;;;;;;10.27;8.90;;;;;;;;;;5115376;28;20643;-66
2024/02/09 13:32:55;;;;;;;11.95;8.55;;;;;;;;;;5115326;28;20269;-66
2024/02/09 13:35:22;;;;;;;8.90;7.87;;;;;;;;;;5115673;28;20224;-66
2024/02/09 13:37:49;;;;;;;13.00;8.43;;;;;;;;;;5115542;28;20481;-66
2024/02/09 13:40:18;;;;;;;9.00;8.10;;;;;;;;;;5115337;28;20638;-66
2024/02/09 13:42:45;;;;;;;9.85;8.85;;;;;;;;;;5115354;28;20241;-66
2024/02/09 13:45:12;;;;;;;10.90;9.60;;;;;;;;;;5115430;28;20203;-66
2024/02/09 13:47:41;;;;;;;10.57;9.18;;;;;;;;;;5115233;28;20562;-66
2024/02/09 13:50:10;;;;;;;11.88;10.27;;;;;;;;;;5115001;28;20601;-66
2024/02/09 13:52:37;;;;;;;12.45;10.05;;;;;;;;;;5115183;28;20271;-66
2024/02/09 13:55:04;;;;;;;15.68;14.07;;;;;;;;;;5115149;28;20612;-66
2024/02/09 13:57:32;;;;;;;11.30;9.60;;;;;;;;;;5114978;28;20279;-66
2024/02/09 13:59:59;;;;;;;15.38;11.48;;;;;;;;;;5115206;28;20215;-66
2024/02/09 14:02:27;;;;;;;10.35;8.85;;;;;;;;;;5115026;28;20194;-66
2024/02/09 14:04:55;;;;;;;9.95;8.40;;;;;;;;;;5114909;28;20240;-66
2024/02/09 14:07:24;;;;;;;11.68;9.80;;;;;;;;;;5114939;28;20187;-65
2024/02/09 14:09:51;;;;;;;10.45;9.13;;;;;;;;;;5114749;28;20188;-66
2024/02/09 14:12:18;;;;;;;10.88;9.77;;;;;;;;;;5114318;28;20184;-66
2024/02/09 14:14:45;;;;;;;10.90;9.73;;;;;;;;;;5114349;28;20216;-66
2024/02/09 14:17:13;;;;;;;13.25;8.50;;;;;;;;;;5114699;28;20195;-66
2024/02/09 14:19:42;;;;;;;12.35;9.05;;;;;;;;;;5114562;28;20211;-66
2024/02/09 14:22:12;;;;;;;14.67;10.93;;;;;;;;;;5114485;28;20214;-66
2024/02/09 14:24:39;;;;;;;10.48;9.45;;;;;;;;;;5114428;28;20441;-66
2024/02/09 14:27:06;;;;;;;10.45;9.35;;;;;;;;;;5114681;28;20226;-65
2024/02/09 14:29:33;;;;;;;10.07;9.03;;;;;;;;;;5114453;28;20251;-66
2024/02/09 14:32:00;;;;;;;12.80;10.40;;;;;;;;;;5114257;28;20467;-66
2024/02/09 14:34:28;;;;;;;10.87;9.87;;;;;;;;;;5114351;28;20447;-66
2024/02/09 14:36:56;;;;;;;10.57;9.10;;;;;;;;;;5114192;28;20487;-66
2024/02/09 14:39:24;;;;;;;11.20;9.43;;;;;;;;;;5114551;28;20220;-66
2024/02/09 14:41:51;;;;;;;12.37;11.17;;;;;;;;;;5114239;28;20540;-66
2024/02/09 14:44:18;;;;;;;11.60;10.40;;;;;;;;;;5114277;28;20536;-66
2024/02/09 14:46:49;;;;;;;13.57;9.73;;;;;;;;;;5114136;28;20438;-66
2024/02/09 14:49:16;;;;;;;12.80;11.50;;;;;;;;;;5114126;28;20449;-66
2024/02/09 14:51:44;;;;;;;12.35;10.20;;;;;;;;;;5114018;28;20283;-66
2024/02/09 14:54:11;;;;;;;13.98;11.93;;;;;;;;;;5114165;28;20195;-66
2024/02/09 14:56:39;;;;;;;18.10;11.00;;;;;;;;;;5113918;28;20714;-66
2024/02/09 14:59:07;;;;;;;12.90;10.40;;;;;;;;;;5113768;28;20558;-66
2024/02/09 15:01:37;;;;;;;14.10;12.23;;;;;;;;;;5113768;28;20799;-66
2024/02/09 15:04:05;;;;;;;13.03;11.63;;;;;;;;;;5113786;28;20445;-66
2024/02/09 15:06:32;;;;;;;13.20;11.77;;;;;;;;;;5114038;28;20899;-66
2024/02/09 15:08:59;;;;;;;15.43;10.60;;;;;;;;;;5113917;28;20536;-66
2024/02/09 15:11:26;;;;;;;12.23;10.70;;;;;;;;;;5113953;28;20533;-66
2024/02/09 15:13:58;;;;;;;13.13;10.53;;;;;;;;;;5113733;28;20452;-66
2024/02/09 15:16:25;;;;;;;15.55;11.77;;;;;;;;;;5113612;28;20446;-66
2024/02/09 15:18:52;;;;;;;14.85;11.48;;;;;;;;;;5113409;28;20227;-66
2024/02/09 15:21:19;;;;;;;12.37;11.07;;;;;;;;;;5113769;28;20188;-66
2024/02/09 15:23:47;;;;;;;13.27;11.97;;;;;;;;;;5113302;28;20485;-66
2024/02/09 15:26:15;;;;;;;14.30;12.80;;;;;;;;;;5113632;28;20448;-66
2024/02/09 15:28:43;;;;;;;13.00;11.70;;;;;;;;;;5113491;28;20903;-66
2024/02/09 15:31:11;;;;;;;13.60;11.00;;;;;;;;;;5113358;28;20274;-66
2024/02/09 15:33:38;;;;;;;14.43;11.60;;;;;;;;;;5113404;28;21006;-66
2024/02/09 15:36:07;;;;;;;12.57;11.00;;;;;;;;;;5113539;28;20433;-66
2024/02/09 15:38:34;;;;;;;13.67;11.77;;;;;;;;;;5113428;28;20450;-66
2024/02/09 15:41:02;;;;;;;16.03;11.93;;;;;;;;;;5113326;28;20934;-66
2024/02/09 15:43:29;;;;;;;15.07;12.20;;;;;;;;;;5113880;28;20540;-66
2024/02/09 15:45:56;;;;;;;18.03;13.30;;;;;;;;;;5113225;28;20441;-66
2024/02/09 15:48:25;;;;;;;15.50;11.60;;;;;;;;;;5113350;28;20540;-66
2024/02/09 15:50:52;;;;;;;13.77;12.05;;;;;;;;;;5113410;28;20857;-66
2024/02/09 15:53:19;;;;;;;13.00;11.70;;;;;;;;;;5113320;28;20618;-66
2024/02/09 15:55:48;;;;;;;15.90;12.17;;;;;;;;;;5113277;28;20243;-66
2024/02/09 15:58:19;;;;;;;15.53;11.33;;;;;;;;;;5113185;28;20477;-66
2024/02/09 16:00:46;;;;;;;16.60;12.20;;;;;;;;;;5113049;28;21004;-66
2024/02/09 16:03:13;;;;;;;13.50;11.50;;;;;;;;;;5113249;28;20442;-66
2024/02/09 16:05:41;;;;;;;15.27;12.50;;;;;;;;;;5113243;28;20960;-66
2024/02/09 16:08:09;;;;;;;17.70;13.27;;;;;;;;;;5113199;28;21016;-66
2024/02/09 16:10:36;;;;;;;14.50;11.60;;;;;;;;;;5113016;28;20449;-66
2024/02/09 16:13:03;;;;;;;13.23;10.97;;;;;;;;;;5113038;28;20537;-66
2024/02/09 16:15:30;;;;;;;14.40;11.70;;;;;;;;;;5113136;28;20452;-66
2024/02/09 16:18:01;;;;;;;15.07;11.60;;;;;;;;;;5113091;28;20479;-66
2024/02/09 16:20:28;;;;;;;18.70;11.48;;;;;;;;;;5113038;28;20524;-66
2024/02/09 16:22:56;;;;;;;12.77;9.77;;;;;;;;;;5113043;28;20188;-66
2024/02/09 16:25:23;;;;;;;15.00;12.00;;;;;;;;;;5112781;28;20477;-66
2024/02/09 16:27:50;;;;;;;18.00;13.07;;;;;;;;;;5113147;28;20524;-66
2024/02/09 16:30:17;;;;;;;15.40;12.53;;;;;;;;;;5112821;28;20446;-66